Time;durP1;ratioP1;P1;durP2;ratioP2;P2;SDS_P1;SDS_P2;PMS_P1;PMS_P2;Temp;Humidity;BMP_temperature;BMP_pressure;BME280_temperature;BME280_humidity;BME280_pressure;Samples;Min_cycle;Max_cycle;Signal;HPM_P1;HPM_P2
2022/12/28 00:01:18;;;;;;;20.05;18.73;;;;;;;;;;5131027;28;20256;-84
2022/12/28 00:03:46;;;;;;;20.15;18.90;;;;;;;;;;5131442;28;20262;-84
2022/12/28 00:06:13;;;;;;;20.17;18.98;;;;;;;;;;5131442;28;20267;-85
2022/12/28 00:08:42;;;;;;;20.38;19.08;;;;;;;;;;5131888;28;20200;-84
2022/12/28 00:11:09;;;;;;;20.08;18.88;;;;;;;;;;5131067;28;20267;-85
2022/12/28 00:13:36;;;;;;;20.30;19.13;;;;;;;;;;5130098;28;20200;-86
2022/12/28 00:16:07;;;;;;;19.50;18.30;;;;;;;;;;5131156;28;20219;-85
2022/12/28 00:18:34;;;;;;;20.58;19.13;;;;;;;;;;5132194;28;20239;-85
2022/12/28 00:21:01;;;;;;;19.95;18.85;;;;;;;;;;5131517;28;20267;-85
2022/12/28 00:23:28;;;;;;;20.65;19.17;;;;;;;;;;5131832;28;20204;-85
2022/12/28 00:25:57;;;;;;;20.58;18.95;;;;;;;;;;5129631;28;20208;-86
2022/12/28 00:28:24;;;;;;;21.50;19.77;;;;;;;;;;5130713;28;20196;-86
2022/12/28 00:30:51;;;;;;;19.15;18.08;;;;;;;;;;5131468;28;20199;-86
2022/12/28 00:33:18;;;;;;;20.20;19.02;;;;;;;;;;5129409;28;20250;-85
2022/12/28 00:35:45;;;;;;;19.60;18.50;;;;;;;;;;5130192;28;20225;-86
2022/12/28 00:38:12;;;;;;;20.63;19.20;;;;;;;;;;5130206;28;20904;-85
2022/12/28 00:40:39;;;;;;;20.10;18.75;;;;;;;;;;5130464;28;20234;-84
2022/12/28 00:43:07;;;;;;;20.02;18.73;;;;;;;;;;5130268;28;20199;-86
2022/12/28 00:45:34;;;;;;;19.00;17.98;;;;;;;;;;5130847;28;20211;-86
2022/12/28 00:48:01;;;;;;;19.80;18.58;;;;;;;;;;5130183;27;20233;-85
2022/12/28 00:50:28;;;;;;;20.45;18.92;;;;;;;;;;5129871;28;20230;-85
2022/12/28 00:52:55;;;;;;;19.25;18.25;;;;;;;;;;5129561;28;20222;-85
2022/12/28 00:55:22;;;;;;;20.05;18.67;;;;;;;;;;5130173;28;20283;-84
2022/12/28 00:57:49;;;;;;;21.02;19.15;;;;;;;;;;5129353;28;20211;-85
2022/12/28 01:00:17;;;;;;;19.58;18.50;;;;;;;;;;5129177;28;20215;-84
2022/12/28 01:02:44;;;;;;;20.55;19.35;;;;;;;;;;5129936;28;20204;-84
2022/12/28 01:05:11;;;;;;;19.80;18.58;;;;;;;;;;5129889;28;20195;-85
2022/12/28 01:07:38;;;;;;;19.75;18.55;;;;;;;;;;5129929;28;20238;-84
2022/12/28 01:10:06;;;;;;;19.27;18.20;;;;;;;;;;5129288;28;20205;-85
2022/12/28 01:12:33;;;;;;;20.65;19.38;;;;;;;;;;5129797;28;20230;-83
2022/12/28 01:15:00;;;;;;;20.48;19.17;;;;;;;;;;5129994;28;20207;-85
2022/12/28 01:17:28;;;;;;;19.67;18.58;;;;;;;;;;5129740;28;20254;-85
2022/12/28 01:19:55;;;;;;;20.20;18.30;;;;;;;;;;5130640;28;20233;-85
2022/12/28 01:22:23;;;;;;;19.85;18.75;;;;;;;;;;5130532;28;20238;-85
2022/12/28 01:24:50;;;;;;;20.55;19.15;;;;;;;;;;5130346;28;20241;-86
2022/12/28 01:27:17;;;;;;;20.77;18.83;;;;;;;;;;5129143;28;20228;-85
2022/12/28 01:29:44;;;;;;;19.65;18.55;;;;;;;;;;5130550;28;20203;-85
2022/12/28 01:32:11;;;;;;;20.15;18.77;;;;;;;;;;5129312;28;20206;-85
2022/12/28 01:34:39;;;;;;;19.42;18.27;;;;;;;;;;5129330;28;20196;-85
2022/12/28 01:37:06;;;;;;;20.05;18.85;;;;;;;;;;5130342;28;20231;-85
2022/12/28 01:39:33;;;;;;;20.33;19.23;;;;;;;;;;5129312;28;20224;-85
2022/12/28 01:42:01;;;;;;;20.02;18.73;;;;;;;;;;5128355;28;20268;-86
2022/12/28 01:44:38;;;;;;;19.33;18.23;;;;;;;;;;5129164;28;20233;-85
2022/12/28 01:47:05;;;;;;;20.40;19.25;;;;;;;;;;5130070;28;20215;-85
2022/12/28 01:49:34;;;;;;;19.17;18.17;;;;;;;;;;5129743;28;20200;-85
2022/12/28 01:52:04;;;;;;;20.23;18.83;;;;;;;;;;5129939;27;20205;-86
2022/12/28 01:54:33;;;;;;;19.92;18.85;;;;;;;;;;5129086;28;20196;-85
2022/12/28 01:57:00;;;;;;;19.33;18.25;;;;;;;;;;5129473;28;20292;-85
2022/12/28 01:59:29;;;;;;;19.57;18.20;;;;;;;;;;5129099;28;20217;-85
2022/12/28 02:01:56;;;;;;;19.52;18.52;;;;;;;;;;5126488;27;20550;-84
2022/12/28 02:04:24;;;;;;;20.02;18.85;;;;;;;;;;5132377;28;20181;-85
2022/12/28 02:06:52;;;;;;;20.60;19.20;;;;;;;;;;5133049;28;20219;-85
2022/12/28 02:09:21;;;;;;;20.55;18.83;;;;;;;;;;5132752;28;20654;-85
2022/12/28 02:11:49;;;;;;;19.73;18.53;;;;;;;;;;5133482;28;20201;-85
2022/12/28 02:14:16;;;;;;;19.23;17.80;;;;;;;;;;5133272;28;20459;-85
2022/12/28 02:16:43;;;;;;;19.90;18.65;;;;;;;;;;5131706;27;20220;-85
2022/12/28 02:19:13;;;;;;;19.05;17.95;;;;;;;;;;5132801;28;20292;-85
2022/12/28 02:21:48;;;;;;;19.23;17.98;;;;;;;;;;5132793;28;20199;-85
2022/12/28 02:24:34;;;;;;;19.60;18.40;;;;;;;;;;5132070;28;20205;-85
2022/12/28 02:27:02;;;;;;;19.42;18.42;;;;;;;;;;5131773;27;20282;-85
2022/12/28 02:29:42;;;;;;;18.73;17.80;;;;;;;;;;5133039;28;20212;-85
2022/12/28 02:32:16;;;;;;;19.10;18.10;;;;;;;;;;5133001;28;20205;-85
2022/12/28 02:34:47;;;;;;;19.10;17.90;;;;;;;;;;5133419;28;20196;-85
2022/12/28 02:37:17;;;;;;;19.48;18.27;;;;;;;;;;5132291;28;20253;-84
2022/12/28 02:39:47;;;;;;;20.63;19.23;;;;;;;;;;5132542;28;20224;-84
2022/12/28 02:42:14;;;;;;;19.50;18.40;;;;;;;;;;5131845;27;20204;-85
2022/12/28 02:50:14;;;;;;;19.27;18.00;;;;;;;;;;5132098;28;20547;-84
2022/12/28 02:52:49;;;;;;;18.63;17.55;;;;;;;;;;5132389;28;20197;-85
2022/12/28 02:58:19;;;;;;;20.00;18.60;;;;;;;;;;5131887;28;20188;-85
2022/12/28 03:00:53;;;;;;;18.77;17.73;;;;;;;;;;5131022;28;20232;-84
2022/12/28 03:03:23;;;;;;;19.50;18.30;;;;;;;;;;5131579;28;20192;-84
2022/12/28 03:08:56;;;;;;;19.33;18.00;;;;;;;;;;5091325;28;20216;-85
2022/12/28 03:11:25;;;;;;;19.40;18.15;;;;;;;;;;5131302;28;20208;-85
2022/12/28 03:13:55;;;;;;;18.77;17.58;;;;;;;;;;5129982;28;20199;-85
2022/12/28 03:16:25;;;;;;;19.63;18.33;;;;;;;;;;5131486;28;20593;-85
2022/12/28 03:32:47;;;;;;;18.95;17.88;;;;;;;;;;5130884;28;20235;-84
2022/12/28 03:35:16;;;;;;;19.27;18.05;;;;;;;;;;5131187;28;20220;-84
2022/12/28 03:37:46;;;;;;;18.10;17.20;;;;;;;;;;5131297;28;20234;-85
2022/12/28 03:40:20;;;;;;;19.02;17.55;;;;;;;;;;5130769;28;20243;-85
2022/12/28 03:45:36;;;;;;;18.48;17.48;;;;;;;;;;5130890;28;20198;-84
2022/12/28 03:48:05;;;;;;;18.85;17.73;;;;;;;;;;5131233;28;20200;-85
2022/12/28 03:50:36;;;;;;;22.25;18.30;;;;;;;;;;5131282;28;20200;-85
2022/12/28 03:53:03;;;;;;;18.93;17.83;;;;;;;;;;5129688;27;20252;-84
2022/12/28 03:55:30;;;;;;;18.10;17.10;;;;;;;;;;5130757;28;20482;-85
2022/12/28 03:57:57;;;;;;;18.13;17.05;;;;;;;;;;5130983;27;20189;-85
2022/12/28 04:00:24;;;;;;;18.60;17.30;;;;;;;;;;5130787;28;20219;-85
2022/12/28 04:02:51;;;;;;;18.00;17.10;;;;;;;;;;5131019;28;20424;-84
2022/12/28 04:05:20;;;;;;;18.25;17.35;;;;;;;;;;5130975;28;20257;-85
2022/12/28 04:07:47;;;;;;;18.43;17.43;;;;;;;;;;5129296;27;20262;-83
2022/12/28 04:10:14;;;;;;;18.60;17.60;;;;;;;;;;5129924;28;20436;-84
2022/12/28 04:12:41;;;;;;;18.13;17.13;;;;;;;;;;5130742;28;20424;-85
2022/12/28 04:15:08;;;;;;;18.45;17.20;;;;;;;;;;5129410;28;20231;-85
2022/12/28 04:17:35;;;;;;;18.00;17.10;;;;;;;;;;5130500;28;20253;-85
2022/12/28 04:20:02;;;;;;;18.20;17.30;;;;;;;;;;5130558;28;20560;-85
2022/12/28 04:22:30;;;;;;;17.75;16.85;;;;;;;;;;5130678;28;20254;-85
2022/12/28 04:24:57;;;;;;;17.95;17.05;;;;;;;;;;5129346;28;20193;-85
2022/12/28 04:27:24;;;;;;;18.15;17.10;;;;;;;;;;5129974;27;20224;-85
2022/12/28 04:29:51;;;;;;;17.83;16.88;;;;;;;;;;5130669;28;20201;-84
2022/12/28 04:32:18;;;;;;;17.80;16.90;;;;;;;;;;5130383;28;20210;-85
2022/12/28 04:34:45;;;;;;;18.10;17.20;;;;;;;;;;5129447;28;20196;-84
2022/12/28 04:37:12;;;;;;;18.30;17.30;;;;;;;;;;5130200;28;20418;-85
2022/12/28 04:39:41;;;;;;;18.15;17.23;;;;;;;;;;5130374;28;20474;-84
2022/12/28 04:42:08;;;;;;;17.33;16.52;;;;;;;;;;5130477;28;20208;-85
2022/12/28 04:44:35;;;;;;;19.90;18.40;;;;;;;;;;5129516;28;20205;-85
2022/12/28 04:47:02;;;;;;;18.40;17.50;;;;;;;;;;5129544;27;20250;-85
2022/12/28 04:49:29;;;;;;;18.67;17.55;;;;;;;;;;5129736;28;20429;-84
2022/12/28 04:51:56;;;;;;;18.20;17.20;;;;;;;;;;5130376;28;20211;-85
2022/12/28 04:54:23;;;;;;;17.77;16.97;;;;;;;;;;5130008;28;20197;-85
2022/12/28 04:56:51;;;;;;;17.85;16.95;;;;;;;;;;5130305;28;20471;-85
2022/12/28 04:59:18;;;;;;;18.30;17.40;;;;;;;;;;5129794;28;20241;-84
2022/12/28 05:01:45;;;;;;;18.33;17.43;;;;;;;;;;5129585;28;20205;-85
2022/12/28 05:04:12;;;;;;;18.15;17.00;;;;;;;;;;5129815;28;20409;-85
2022/12/28 05:06:39;;;;;;;18.90;17.90;;;;;;;;;;5129482;27;20253;-84
2022/12/28 05:09:06;;;;;;;18.20;17.20;;;;;;;;;;5129729;28;20226;-85
2022/12/28 05:11:33;;;;;;;18.20;17.20;;;;;;;;;;5129401;28;20422;-85
2022/12/28 05:14:01;;;;;;;19.07;18.00;;;;;;;;;;5129318;28;20418;-85
2022/12/28 05:16:29;;;;;;;17.70;16.80;;;;;;;;;;5129714;28;20499;-85
2022/12/28 05:18:56;;;;;;;19.40;17.70;;;;;;;;;;5127460;28;20467;-85
2022/12/28 05:21:24;;;;;;;18.07;17.17;;;;;;;;;;5129966;28;20457;-85
2022/12/28 05:23:51;;;;;;;18.73;17.77;;;;;;;;;;5129386;28;20511;-85
2022/12/28 05:26:19;;;;;;;18.58;17.58;;;;;;;;;;5128492;27;20457;-85
2022/12/28 05:28:46;;;;;;;19.48;18.25;;;;;;;;;;5128589;28;20192;-85
2022/12/28 05:31:15;;;;;;;19.77;18.67;;;;;;;;;;5129141;28;20205;-84
2022/12/28 05:33:43;;;;;;;20.20;19.00;;;;;;;;;;5127594;28;20257;-83
2022/12/28 05:36:11;;;;;;;19.57;18.57;;;;;;;;;;5128805;28;20454;-85
2022/12/28 05:38:39;;;;;;;19.98;18.88;;;;;;;;;;5128627;28;20472;-84
2022/12/28 05:41:07;;;;;;;19.70;18.60;;;;;;;;;;5127293;27;20227;-85
2022/12/28 05:43:34;;;;;;;20.50;19.15;;;;;;;;;;5127753;28;20431;-85
2022/12/28 05:46:02;;;;;;;20.00;18.90;;;;;;;;;;5127956;28;20217;-85
2022/12/28 05:48:32;;;;;;;20.40;19.30;;;;;;;;;;5128896;28;20209;-85
2022/12/28 05:51:00;;;;;;;19.55;18.60;;;;;;;;;;5128110;27;20231;-84
2022/12/28 05:53:29;;;;;;;19.85;18.85;;;;;;;;;;5128515;28;20235;-85
2022/12/28 05:56:00;;;;;;;19.38;18.42;;;;;;;;;;5129227;28;20659;-85
2022/12/28 05:58:27;;;;;;;19.98;18.88;;;;;;;;;;5128408;28;20209;-84
2022/12/28 06:00:54;;;;;;;20.25;19.25;;;;;;;;;;5128762;28;20225;-84
2022/12/28 06:03:21;;;;;;;19.15;18.15;;;;;;;;;;5127745;27;20230;-85
2022/12/28 06:05:49;;;;;;;19.63;18.70;;;;;;;;;;5127735;28;20224;-84
2022/12/28 06:08:16;;;;;;;19.98;18.70;;;;;;;;;;5126948;28;20204;-84
2022/12/28 06:10:43;;;;;;;22.13;20.73;;;;;;;;;;5127999;28;20252;-84
2022/12/28 06:13:10;;;;;;;20.50;19.40;;;;;;;;;;5126679;27;20233;-85
2022/12/28 06:15:37;;;;;;;21.80;20.70;;;;;;;;;;5128196;28;20193;-85
2022/12/28 06:18:04;;;;;;;20.55;19.52;;;;;;;;;;5127214;28;20446;-84
2022/12/28 06:20:31;;;;;;;21.13;20.03;;;;;;;;;;5127599;28;20217;-84
2022/12/28 06:22:59;;;;;;;20.83;19.83;;;;;;;;;;5128116;28;20441;-84
2022/12/28 06:25:26;;;;;;;21.75;20.55;;;;;;;;;;5129206;28;20204;-84
2022/12/28 06:27:54;;;;;;;21.75;20.65;;;;;;;;;;5127785;27;20201;-85
2022/12/28 06:30:21;;;;;;;22.75;21.55;;;;;;;;;;5128458;28;20211;-85
2022/12/28 06:32:47;;;;;;;21.60;20.60;;;;;;;;;;5128368;28;20684;-85
2022/12/28 06:35:14;;;;;;;21.17;20.17;;;;;;;;;;5127438;28;20196;-84
2022/12/28 06:37:41;;;;;;;21.90;20.70;;;;;;;;;;5128045;28;20310;-85
2022/12/28 06:40:10;;;;;;;21.30;20.30;;;;;;;;;;5128099;28;20228;-85
2022/12/28 06:42:37;;;;;;;21.45;20.25;;;;;;;;;;5128461;28;20196;-85
2022/12/28 06:45:05;;;;;;;22.30;21.10;;;;;;;;;;5127728;28;20679;-84
2022/12/28 06:47:32;;;;;;;22.30;21.00;;;;;;;;;;5128492;27;20474;-85
2022/12/28 06:49:59;;;;;;;20.80;19.70;;;;;;;;;;5132607;28;20228;-84
2022/12/28 06:52:26;;;;;;;20.83;19.50;;;;;;;;;;5131876;28;20605;-85
2022/12/28 06:54:53;;;;;;;20.88;19.85;;;;;;;;;;5130965;28;20250;-85
2022/12/28 06:57:21;;;;;;;19.98;19.08;;;;;;;;;;5131258;27;20232;-83
2022/12/28 06:59:48;;;;;;;20.50;19.40;;;;;;;;;;5131718;28;20205;-84
2022/12/28 07:02:15;;;;;;;19.55;18.65;;;;;;;;;;5131019;28;20479;-84
2022/12/28 07:04:42;;;;;;;19.52;18.63;;;;;;;;;;5131183;28;20204;-85
2022/12/28 07:07:09;;;;;;;20.65;19.75;;;;;;;;;;5131683;28;20269;-85
2022/12/28 07:09:36;;;;;;;20.83;19.60;;;;;;;;;;5131650;28;20219;-84
2022/12/28 07:12:03;;;;;;;19.67;18.77;;;;;;;;;;5131854;28;20451;-85
2022/12/28 07:14:32;;;;;;;18.50;17.70;;;;;;;;;;5130451;28;20204;-84
2022/12/28 07:16:59;;;;;;;18.80;17.80;;;;;;;;;;5130652;27;20227;-84
2022/12/28 07:19:26;;;;;;;18.15;17.35;;;;;;;;;;5131566;28;20614;-84
2022/12/28 07:21:53;;;;;;;18.20;17.27;;;;;;;;;;5131615;27;20281;-83
2022/12/28 07:24:20;;;;;;;18.02;17.13;;;;;;;;;;5130560;28;20439;-85
2022/12/28 07:26:48;;;;;;;17.63;16.73;;;;;;;;;;5130375;27;20301;-84
2022/12/28 07:29:15;;;;;;;18.10;17.10;;;;;;;;;;5130807;28;20279;-85
2022/12/28 07:31:44;;;;;;;18.20;17.27;;;;;;;;;;5130639;28;20446;-84
2022/12/28 07:34:11;;;;;;;18.55;17.55;;;;;;;;;;5130469;28;20230;-86
2022/12/28 07:36:38;;;;;;;17.80;17.00;;;;;;;;;;5130537;27;20221;-86
2022/12/28 07:39:05;;;;;;;17.70;16.90;;;;;;;;;;5130404;28;20957;-86
2022/12/28 07:41:32;;;;;;;17.92;17.13;;;;;;;;;;5129963;28;20878;-86
2022/12/28 07:44:00;;;;;;;18.10;17.23;;;;;;;;;;5129792;28;20304;-85
2022/12/28 07:46:28;;;;;;;17.65;16.85;;;;;;;;;;5129423;27;20225;-86
2022/12/28 07:48:57;;;;;;;18.35;17.55;;;;;;;;;;5129454;28;20226;-84
2022/12/28 07:51:25;;;;;;;17.90;17.00;;;;;;;;;;5129485;28;20230;-85
2022/12/28 07:53:53;;;;;;;18.52;17.52;;;;;;;;;;5128231;28;20434;-85
2022/12/28 07:56:20;;;;;;;16.87;16.17;;;;;;;;;;5128964;28;20251;-86
2022/12/28 07:58:49;;;;;;;17.85;16.95;;;;;;;;;;5128649;27;20476;-86
2022/12/28 08:01:16;;;;;;;16.80;16.00;;;;;;;;;;5129164;28;20213;-84
2022/12/28 08:03:43;;;;;;;16.53;15.83;;;;;;;;;;5129058;28;20502;-85
2022/12/28 08:06:13;;;;;;;17.37;16.47;;;;;;;;;;5127932;28;20467;-86
2022/12/28 08:08:41;;;;;;;16.90;16.20;;;;;;;;;;5127914;28;20431;-85
2022/12/28 08:11:09;;;;;;;17.03;16.30;;;;;;;;;;5127458;28;20201;-86
2022/12/28 08:13:37;;;;;;;17.55;16.60;;;;;;;;;;5127029;28;20530;-86
2022/12/28 08:16:05;;;;;;;17.90;16.80;;;;;;;;;;5127486;27;20218;-85
2022/12/28 08:18:32;;;;;;;16.60;15.80;;;;;;;;;;5127942;28;20807;-85
2022/12/28 08:21:01;;;;;;;17.57;16.73;;;;;;;;;;5129940;28;21052;-85
2022/12/28 08:23:30;;;;;;;16.50;15.70;;;;;;;;;;5124404;28;20427;-82
2022/12/28 08:25:57;;;;;;;17.27;16.57;;;;;;;;;;5122187;28;20434;-81
2022/12/28 08:28:24;;;;;;;17.70;16.90;;;;;;;;;;5122609;28;20414;-83
2022/12/28 08:30:51;;;;;;;17.77;16.80;;;;;;;;;;5126999;28;20447;-85
2022/12/28 08:33:18;;;;;;;16.95;16.15;;;;;;;;;;5126186;27;20423;-85
2022/12/28 08:35:45;;;;;;;18.23;17.43;;;;;;;;;;5127011;28;20233;-82
2022/12/28 08:38:12;;;;;;;17.70;16.90;;;;;;;;;;5123657;27;20877;-83
2022/12/28 08:40:40;;;;;;;17.50;16.70;;;;;;;;;;5123543;28;20476;-84
2022/12/28 08:43:07;;;;;;;16.90;16.10;;;;;;;;;;5124574;28;20990;-85
2022/12/28 08:45:34;;;;;;;17.30;16.60;;;;;;;;;;5127663;28;20769;-85
2022/12/28 08:48:01;;;;;;;17.48;16.67;;;;;;;;;;5127737;28;20483;-85
2022/12/28 08:50:28;;;;;;;17.10;16.40;;;;;;;;;;5123331;28;20201;-83
2022/12/28 08:52:55;;;;;;;16.40;15.70;;;;;;;;;;5122464;27;20437;-83
2022/12/28 08:55:22;;;;;;;17.30;16.50;;;;;;;;;;5123118;28;20449;-84
2022/12/28 08:57:50;;;;;;;16.73;16.03;;;;;;;;;;5127260;28;20462;-84
2022/12/28 09:00:18;;;;;;;16.65;15.85;;;;;;;;;;5127182;28;20439;-84
2022/12/28 09:02:45;;;;;;;16.60;15.90;;;;;;;;;;5124037;28;20235;-82
2022/12/28 09:05:12;;;;;;;17.83;16.93;;;;;;;;;;5122546;28;20503;-82
2022/12/28 09:07:40;;;;;;;16.87;16.17;;;;;;;;;;5122690;28;20473;-83
2022/12/28 09:10:08;;;;;;;16.30;15.63;;;;;;;;;;5125703;28;20423;-84
2022/12/28 09:12:35;;;;;;;16.47;15.77;;;;;;;;;;5125867;28;20445;-84
2022/12/28 09:15:03;;;;;;;16.57;15.87;;;;;;;;;;5125274;28;20428;-82
2022/12/28 09:17:30;;;;;;;16.57;15.80;;;;;;;;;;5121839;27;20518;-83
2022/12/28 09:19:57;;;;;;;17.17;16.38;;;;;;;;;;5118267;28;20830;-84
2022/12/28 09:22:24;;;;;;;17.40;16.50;;;;;;;;;;5118374;28;20248;-82
2022/12/28 09:24:51;;;;;;;17.10;16.30;;;;;;;;;;5120193;28;20409;-85
2022/12/28 09:27:18;;;;;;;17.00;16.30;;;;;;;;;;5123419;28;20453;-85
2022/12/28 09:29:45;;;;;;;17.00;16.20;;;;;;;;;;5124314;28;20258;-85
2022/12/28 09:32:13;;;;;;;16.83;16.03;;;;;;;;;;5123759;28;20786;-85
2022/12/28 09:34:40;;;;;;;17.80;16.80;;;;;;;;;;5118209;28;20995;-91
2022/12/28 09:37:08;;;;;;;17.00;16.20;;;;;;;;;;5117263;28;20517;-91
2022/12/28 09:39:35;;;;;;;17.80;16.90;;;;;;;;;;5115127;28;20524;-91
2022/12/28 09:42:03;;;;;;;17.47;16.57;;;;;;;;;;5114455;28;20482;-90
2022/12/28 09:44:44;;;;;;;17.63;16.73;;;;;;;;;;5113847;28;20446;-91
2022/12/28 09:47:35;;;;;;;16.40;15.70;;;;;;;;;;5114433;28;20506;-90
2022/12/28 09:50:06;;;;;;;16.97;16.17;;;;;;;;;;5117418;28;20433;-81
2022/12/28 09:52:34;;;;;;;17.73;16.93;;;;;;;;;;5119529;28;20400;-82
2022/12/28 09:55:07;;;;;;;16.83;16.13;;;;;;;;;;5117110;28;20429;-82
2022/12/28 09:57:37;;;;;;;17.17;16.37;;;;;;;;;;5116280;27;20475;-82
2022/12/28 10:00:05;;;;;;;16.73;16.03;;;;;;;;;;5117709;28;20410;-82
2022/12/28 10:02:35;;;;;;;17.27;16.57;;;;;;;;;;5117120;28;20485;-82
2022/12/28 10:05:02;;;;;;;17.42;16.63;;;;;;;;;;5117234;28;20475;-83
2022/12/28 10:07:29;;;;;;;16.70;16.00;;;;;;;;;;5117309;28;20277;-82
2022/12/28 10:09:56;;;;;;;17.50;16.70;;;;;;;;;;5117203;28;20429;-80
2022/12/28 10:12:24;;;;;;;17.70;16.90;;;;;;;;;;5115540;27;20809;-81
2022/12/28 10:14:52;;;;;;;18.80;17.80;;;;;;;;;;5115750;28;20805;-82
2022/12/28 10:17:21;;;;;;;17.88;16.98;;;;;;;;;;5116475;28;20467;-81
2022/12/28 10:19:49;;;;;;;18.17;17.37;;;;;;;;;;5116354;28;20602;-81
2022/12/28 10:22:18;;;;;;;17.50;16.80;;;;;;;;;;5118034;28;20826;-82
2022/12/28 10:24:46;;;;;;;17.33;16.50;;;;;;;;;;5122523;28;20458;-81
2022/12/28 10:27:14;;;;;;;17.33;16.63;;;;;;;;;;5120210;27;20540;-82
2022/12/28 10:29:42;;;;;;;17.30;16.50;;;;;;;;;;5120890;28;20829;-82
2022/12/28 10:32:11;;;;;;;17.13;16.43;;;;;;;;;;5120878;28;20791;-82
2022/12/28 10:34:53;;;;;;;16.60;15.90;;;;;;;;;;5119824;28;20470;-81
2022/12/28 10:37:22;;;;;;;18.33;17.50;;;;;;;;;;5119983;27;20485;-81
2022/12/28 10:39:50;;;;;;;17.95;17.15;;;;;;;;;;5120452;28;20506;-81
2022/12/28 10:42:21;;;;;;;18.17;17.37;;;;;;;;;;5120870;28;20244;-82
2022/12/28 10:44:49;;;;;;;18.70;17.70;;;;;;;;;;5120314;28;20401;-82
2022/12/28 10:47:17;;;;;;;18.48;17.67;;;;;;;;;;5120925;28;20455;-81
2022/12/28 10:49:48;;;;;;;19.90;18.80;;;;;;;;;;5121108;28;20194;-81
2022/12/28 10:52:19;;;;;;;19.43;18.63;;;;;;;;;;5120249;28;20985;-81
2022/12/28 10:54:47;;;;;;;20.85;19.95;;;;;;;;;;5119770;28;20426;-80
2022/12/28 10:57:17;;;;;;;20.23;19.33;;;;;;;;;;5120467;28;20316;-82
2022/12/28 10:59:45;;;;;;;20.85;19.95;;;;;;;;;;5120651;28;20793;-82
2022/12/28 11:02:23;;;;;;;22.17;21.10;;;;;;;;;;5119813;28;20254;-89
2022/12/28 11:04:54;;;;;;;22.50;21.50;;;;;;;;;;5118072;28;20466;-81
2022/12/28 11:07:27;;;;;;;21.53;20.63;;;;;;;;;;5121230;28;20434;-82
2022/12/28 11:10:13;;;;;;;20.47;19.57;;;;;;;;;;5121543;28;20431;-85
2022/12/28 11:12:42;;;;;;;21.20;20.30;;;;;;;;;;5121400;28;20410;-82
2022/12/28 11:15:10;;;;;;;19.93;19.13;;;;;;;;;;5121300;28;20441;-83
2022/12/28 11:17:37;;;;;;;19.50;18.70;;;;;;;;;;5120629;28;20478;-82
2022/12/28 11:20:07;;;;;;;20.13;18.98;;;;;;;;;;5120894;28;20425;-82
2022/12/28 11:22:34;;;;;;;20.35;19.33;;;;;;;;;;5120373;28;20225;-82
2022/12/28 11:25:03;;;;;;;19.42;18.52;;;;;;;;;;5119697;28;20211;-82
2022/12/28 11:27:30;;;;;;;17.73;16.92;;;;;;;;;;5120150;28;20214;-82
2022/12/28 11:29:57;;;;;;;19.25;18.25;;;;;;;;;;5120327;27;20235;-82
2022/12/28 11:32:26;;;;;;;18.47;17.60;;;;;;;;;;5120261;28;20262;-82
2022/12/28 11:34:54;;;;;;;18.67;17.60;;;;;;;;;;5119827;28;20443;-82
2022/12/28 11:37:21;;;;;;;17.80;17.00;;;;;;;;;;5120610;27;20959;-82
2022/12/28 11:39:49;;;;;;;17.60;16.80;;;;;;;;;;5120226;28;20467;-82
2022/12/28 11:42:31;;;;;;;17.77;16.77;;;;;;;;;;5120613;28;20583;-82
2022/12/28 11:44:59;;;;;;;17.57;16.77;;;;;;;;;;5119574;28;20912;-82
2022/12/28 11:47:32;;;;;;;18.20;17.20;;;;;;;;;;5120301;28;20995;-82
2022/12/28 11:50:18;;;;;;;16.47;15.77;;;;;;;;;;5121350;28;20418;-82
2022/12/28 11:52:45;;;;;;;16.73;16.00;;;;;;;;;;5119782;27;20781;-83
2022/12/28 11:55:31;;;;;;;17.93;17.03;;;;;;;;;;5119103;27;20427;-82
2022/12/28 11:57:59;;;;;;;17.43;16.30;;;;;;;;;;5119786;28;20415;-83
2022/12/28 12:00:43;;;;;;;17.40;16.60;;;;;;;;;;5119981;28;20434;-82
2022/12/28 12:03:12;;;;;;;17.63;16.73;;;;;;;;;;5108877;28;20479;-83
2022/12/28 12:05:52;;;;;;;17.00;16.20;;;;;;;;;;5118975;27;20441;-83
2022/12/28 12:08:39;;;;;;;17.27;16.47;;;;;;;;;;5120242;28;20439;-82
2022/12/28 12:11:22;;;;;;;17.10;16.30;;;;;;;;;;5119481;28;20815;-82
2022/12/28 12:13:50;;;;;;;18.88;17.98;;;;;;;;;;5117890;28;20725;-83
2022/12/28 12:16:22;;;;;;;18.50;17.60;;;;;;;;;;5118846;28;20916;-82
2022/12/28 12:18:51;;;;;;;19.10;18.20;;;;;;;;;;5119421;28;20418;-82
2022/12/28 12:21:24;;;;;;;17.70;16.90;;;;;;;;;;5118990;28;20431;-82
2022/12/28 12:23:52;;;;;;;17.47;16.63;;;;;;;;;;5118443;28;20520;-82
2022/12/28 12:26:26;;;;;;;17.90;16.90;;;;;;;;;;5118783;28;20929;-82
2022/12/28 12:28:54;;;;;;;18.40;17.40;;;;;;;;;;5119148;28;20433;-82
2022/12/28 12:31:25;;;;;;;17.53;16.63;;;;;;;;;;5118434;28;20471;-83
2022/12/28 12:33:55;;;;;;;18.00;16.90;;;;;;;;;;5117873;28;20429;-82
2022/12/28 12:36:33;;;;;;;18.73;17.47;;;;;;;;;;5118641;28;20535;-81
2022/12/28 12:39:10;;;;;;;17.47;16.67;;;;;;;;;;5118616;28;20435;-82
2022/12/28 12:41:41;;;;;;;17.20;16.30;;;;;;;;;;5118361;28;20882;-81
2022/12/28 12:44:19;;;;;;;19.07;18.07;;;;;;;;;;5118015;28;20427;-82
2022/12/28 12:47:04;;;;;;;17.10;16.30;;;;;;;;;;5117633;28;20886;-81
2022/12/28 12:49:41;;;;;;;17.50;16.63;;;;;;;;;;5118864;28;20409;-82
2022/12/28 12:52:15;;;;;;;16.63;15.73;;;;;;;;;;5117964;28;20481;-81
2022/12/28 12:54:51;;;;;;;18.80;17.80;;;;;;;;;;5117213;28;20506;-81
2022/12/28 12:57:21;;;;;;;18.07;17.17;;;;;;;;;;5119707;27;20508;-85
2022/12/28 13:00:03;;;;;;;17.43;16.53;;;;;;;;;;5120320;28;20436;-82
2022/12/28 13:02:39;;;;;;;17.27;16.47;;;;;;;;;;5116273;27;21014;-82
2022/12/28 13:05:08;;;;;;;17.97;17.07;;;;;;;;;;5118260;28;20417;-82
2022/12/28 13:07:35;;;;;;;17.67;16.87;;;;;;;;;;5117850;28;20455;-82
2022/12/28 13:10:03;;;;;;;18.30;17.33;;;;;;;;;;5118257;28;20449;-83
2022/12/28 13:12:30;;;;;;;18.40;17.50;;;;;;;;;;5117748;27;20469;-83
2022/12/28 13:14:59;;;;;;;17.80;16.90;;;;;;;;;;5118131;28;20424;-83
2022/12/28 13:17:26;;;;;;;18.30;17.30;;;;;;;;;;5118622;28;20493;-83
2022/12/28 13:22:47;;;;;;;18.20;17.30;;;;;;;;;;5152092;27;20593;-81
2022/12/28 13:25:23;;;;;;;18.43;17.43;;;;;;;;;;5136200;28;20442;-81
2022/12/28 13:27:51;;;;;;;18.43;17.43;;;;;;;;;;5115593;28;20410;-81
2022/12/28 13:30:18;;;;;;;18.10;17.20;;;;;;;;;;5115800;28;20455;-81
2022/12/28 13:32:50;;;;;;;17.73;16.83;;;;;;;;;;5115701;28;20474;-81
2022/12/28 13:35:18;;;;;;;19.50;18.50;;;;;;;;;;5115720;28;20411;-81
2022/12/28 13:38:01;;;;;;;18.40;17.40;;;;;;;;;;5115454;28;20537;-81
2022/12/28 13:40:29;;;;;;;18.70;17.80;;;;;;;;;;5115897;28;20852;-81
2022/12/28 13:43:00;;;;;;;19.57;18.50;;;;;;;;;;5115189;28;20430;-82
2022/12/28 13:45:27;;;;;;;20.10;18.70;;;;;;;;;;5115393;28;20432;-82
2022/12/28 13:47:55;;;;;;;17.70;16.77;;;;;;;;;;5116804;28;20418;-83
2022/12/28 13:50:24;;;;;;;19.77;18.77;;;;;;;;;;5116102;28;20477;-81
2022/12/28 13:52:52;;;;;;;17.63;16.83;;;;;;;;;;5116094;28;20426;-77
2022/12/28 13:55:22;;;;;;;18.63;17.73;;;;;;;;;;5117657;28;20488;-84
2022/12/28 13:57:52;;;;;;;17.73;16.93;;;;;;;;;;5117233;28;20426;-84
2022/12/28 14:00:20;;;;;;;20.13;19.03;;;;;;;;;;5118252;28;20833;-84
2022/12/28 14:02:47;;;;;;;18.50;17.23;;;;;;;;;;5116271;28;20550;-80
2022/12/28 14:05:19;;;;;;;19.07;18.07;;;;;;;;;;5117575;28;20431;-85
2022/12/28 14:07:47;;;;;;;18.37;17.47;;;;;;;;;;5118718;28;20443;-83
2022/12/28 14:10:14;;;;;;;18.30;17.40;;;;;;;;;;5116359;28;20795;-83
2022/12/28 14:12:43;;;;;;;23.43;21.30;;;;;;;;;;5117804;28;20425;-83
2022/12/28 14:15:11;;;;;;;20.37;19.17;;;;;;;;;;5116688;28;20455;-83
2022/12/28 14:17:39;;;;;;;19.13;18.13;;;;;;;;;;5116605;28;20823;-84
2022/12/28 14:20:06;;;;;;;18.50;17.50;;;;;;;;;;5116862;28;20437;-84
2022/12/28 14:22:35;;;;;;;19.23;18.13;;;;;;;;;;5113095;28;20600;-82
2022/12/28 14:25:03;;;;;;;18.90;17.70;;;;;;;;;;5115829;28;20459;-83
2022/12/28 14:27:31;;;;;;;20.00;19.00;;;;;;;;;;5117119;28;20532;-81
2022/12/28 14:29:59;;;;;;;19.37;18.33;;;;;;;;;;5118478;28;20454;-82
2022/12/28 14:32:27;;;;;;;18.57;17.67;;;;;;;;;;5114231;28;20453;-81
2022/12/28 14:34:57;;;;;;;18.53;17.63;;;;;;;;;;5105450;28;20422;-83
2022/12/28 14:37:26;;;;;;;18.83;17.77;;;;;;;;;;5105819;28;20446;-82
2022/12/28 14:39:53;;;;;;;19.63;18.43;;;;;;;;;;5104630;28;20422;-83
2022/12/28 14:42:21;;;;;;;18.37;17.47;;;;;;;;;;5104889;28;20560;-82
2022/12/28 14:44:49;;;;;;;19.00;17.90;;;;;;;;;;5102533;28;20422;-85
2022/12/28 14:47:37;;;;;;;19.60;18.40;;;;;;;;;;5098961;28;20466;-85
2022/12/28 14:50:04;;;;;;;18.60;17.70;;;;;;;;;;5101835;28;20477;-83
2022/12/28 14:52:42;;;;;;;18.30;17.30;;;;;;;;;;5101085;28;20425;-84
2022/12/28 14:55:23;;;;;;;18.37;17.47;;;;;;;;;;5100260;28;20421;-81
2022/12/28 14:57:51;;;;;;;18.80;17.70;;;;;;;;;;5099891;28;20941;-80